« Back
NWS Peachtree City, Ga » Text Product » ATL Terminal Aerodrome Forecast


Printer-friendly Version
Current Version              Previous Versions:   1  2  3  4  5  6  7  8  9  

Terminal Aerodrome Forecast

099
FTUS42 KFFC 140130 AAA
TAFATL
TAF AMD
KATL 140130Z 1402/1506 35009KT P6SM FEW200
     FM140600 03004KT P6SM SCT150
     FM141200 10008KT P6SM BKN150
     FM142100 14008KT P6SM BKN150
     FM150000 12008KT P6SM BKN060=



USA.gov is the U.S. government's official web portal to all federal, state and local government web resources and services.